Sunday, March 24, 2019, 7:40 PM EDT
Back to Local

KHPN, White Plains Westchester

Location: Greenwich, NY, United States Lat: 41.067
Local Time: 7:40 PM EDT (23:40 GMT) Lon: -73.7
Time Zone: US/Eastern Elev: 439 ft

Show me the last for .
Show Decoded

2019-03-24 18:56 METAR KHPN 242256Z 25006KT 10SM CLR 13/M08 A3000 RMK AO2 SLP163 T01331083 =
2019-03-24 17:56 METAR KHPN 242156Z 25009G15KT 10SM CLR 14/M09 A2999 RMK AO2 SLP158 T01391094 =
2019-03-24 16:56 METAR KHPN 242056Z VRB06KT 10SM CLR 14/M09 A2999 RMK AO2 SLP158 T01391094 56026
                 =
2019-03-24 15:56 METAR KHPN 241956Z 24010G16KT 180V270 10SM CLR 14/M13 A3001 RMK AO2 SLP164
                 T01391128 =
2019-03-24 14:56 METAR KHPN 241856Z VRB05KT 10SM CLR 13/M12 A3004 RMK AO2 SLP176 T01331117 =
2019-03-24 13:56 METAR KHPN 241756Z 24008G20KT 10SM CLR 13/M12 A3007 RMK AO2 SLP185 T01281117
                 10133 20022 58029 =
2019-03-24 12:56 METAR KHPN 241656Z 26008G18KT 10SM CLR 11/M11 A3010 RMK AO2 SLP198 T01111111 =
2019-03-24 11:56 METAR KHPN 241556Z 28011KT 10SM CLR 10/M11 A3013 RMK AO2 SLP208 T01001106 =
2019-03-24 10:56 METAR KHPN 241456Z 28013KT 10SM CLR 08/M10 A3015 RMK AO2 SLP216 T00781100 58004
                 =
2019-03-24 09:56 METAR KHPN 241356Z 30012KT 10SM CLR 06/M09 A3016 RMK AO2 SLP219 T00611094 =
2019-03-24 08:56 METAR KHPN 241256Z 30008KT 10SM CLR 04/M09 A3017 RMK AO2 SLP223 T00391094 =
2019-03-24 07:56 METAR KHPN 241156Z 29007KT 10SM CLR 02/M11 A3017 RMK AO2 SLP221 T00221106 10022
                 20006 53010 =
2019-03-24 06:56 METAR KHPN 241056Z 30009KT 10SM CLR 01/M10 A3015 RMK AO2 SLP215 T00061100 =
2019-03-24 05:56 METAR KHPN 240956Z 30011KT 10SM CLR 01/M10 A3014 RMK AO2 SLP211 T00111100 =
2019-03-24 04:56 METAR KHPN 240856Z 30015G21KT 10SM CLR 02/M10 A3013 RMK AO2 SLP210 T00171100
                 51005 =
2019-03-24 03:56 METAR KHPN 240756Z 29011KT 10SM CLR 02/M11 A3013 RMK AO2 SLP208 T00171106 =
2019-03-24 02:56 METAR KHPN 240656Z 28011KT 10SM CLR 02/M11 A3013 RMK AO2 SLP210 T00171111 =
2019-03-24 01:56 METAR KHPN 240556Z 29011G16KT 10SM CLR 02/M11 A3012 RMK AO2 SLP204 T00171111
                 10039 20017 53007 =
2019-03-24 00:56 METAR KHPN 240456Z 29015KT 10SM CLR 02/M11 A3010 RMK AO2 SLP200 T00221111
                 400720000 =
2019-03-23 23:56 METAR KHPN 240356Z 29012KT 10SM CLR 03/M12 A3010 RMK AO2 SLP200 T00281117 =
2019-03-23 22:56 METAR KHPN 240256Z 30011KT 10SM CLR 03/M11 A3010 RMK AO2 PK WND 30027/0231
                 SLP198 T00281111 51025 =
2019-03-23 21:56 METAR KHPN 240156Z 31017G24KT 10SM CLR 03/M12 A3008 RMK AO2 PK WND 31027/0109
                 SLP193 T00281117 =
2019-03-23 20:56 METAR KHPN 240056Z 30017G24KT 10SM CLR 03/M12 A3006 RMK AO2 PK WND 31033/0008
                 SLP187 T00331117 =
2019-03-23 19:56 METAR KHPN 232356Z 29014G24KT 10SM CLR 04/M12 A3002 RMK AO2 PK WND 31033/2307
                 PRESRR SLP172 T00391122 10072 20039 53035 =

Support USWX by starting your Amazon purchase here.